createdAt,value
2023-03-10T00:03:11.801Z,1.30
2023-03-10T00:08:34.811Z,1.57
2023-03-10T00:13:57.799Z,1.30
2023-03-10T00:19:22.804Z,1.17
2023-03-10T00:24:45.830Z,1.43
2023-03-10T00:30:08.825Z,1.20
2023-03-10T00:35:33.827Z,0.87
2023-03-10T00:40:56.871Z,1.10
2023-03-10T00:46:19.936Z,0.90
2023-03-10T00:51:44.836Z,0.97
2023-03-10T00:57:07.842Z,1.03
2023-03-10T01:02:30.862Z,0.80
2023-03-10T01:07:55.846Z,0.83
2023-03-10T01:13:18.897Z,1.00
2023-03-10T01:18:41.873Z,0.90
2023-03-10T01:24:06.866Z,0.77
2023-03-10T01:29:30.861Z,0.70
2023-03-10T01:34:53.867Z,0.80
2023-03-10T01:40:24.854Z,0.50
2023-03-10T01:46:36.881Z,0.70
2023-03-10T01:52:09.308Z,0.40
2023-03-10T01:57:36.894Z,0.60
2023-03-10T02:03:06.907Z,0.50
2023-03-10T02:08:30.904Z,0.73
2023-03-10T02:13:55.873Z,0.50
2023-03-10T02:19:25.910Z,0.83
2023-03-10T02:24:56.878Z,0.57
2023-03-10T02:30:24.878Z,0.80
2023-03-10T02:35:47.911Z,0.60
2023-03-10T02:41:12.898Z,0.60
2023-03-10T02:46:37.899Z,0.60
2023-03-10T02:52:01.877Z,0.50
2023-03-10T02:57:24.959Z,0.90
2023-03-10T03:02:50.155Z,0.60
2023-03-10T03:08:14.953Z,0.80
2023-03-10T03:13:37.963Z,0.70
2023-03-10T03:19:02.927Z,0.50
2023-03-10T03:24:27.958Z,0.60
2023-03-10T03:29:51.938Z,0.60
2023-03-10T03:35:16.929Z,0.70
2023-03-10T03:40:42.919Z,0.73
2023-03-10T03:46:10.976Z,0.80
2023-03-10T03:51:36.426Z,1.27
2023-03-10T03:57:00.928Z,1.10
2023-03-10T04:02:38.991Z,0.80
2023-03-10T04:08:03.937Z,1.10
2023-03-10T04:13:26.955Z,0.77
2023-03-10T04:18:50.942Z,1.00
2023-03-10T04:24:17.014Z,0.67
2023-03-10T04:29:39.969Z,0.80
2023-03-10T04:35:02.975Z,0.63
2023-03-10T04:40:27.982Z,0.80
2023-03-10T04:45:52.005Z,1.00
2023-03-10T04:51:16.984Z,0.73
2023-03-10T04:56:44.978Z,0.90
2023-03-10T05:02:08.063Z,0.90
2023-03-10T05:07:30.974Z,0.70
2023-03-10T05:12:55.970Z,0.60
2023-03-10T05:18:19.992Z,0.67
2023-03-10T05:23:42.991Z,0.50
2023-03-10T05:29:08.989Z,0.80
2023-03-10T05:34:41.002Z,0.97
2023-03-10T05:40:05.992Z,0.87
2023-03-10T05:45:31.015Z,1.30
2023-03-10T05:50:55.025Z,1.13
2023-03-10T05:56:22.021Z,1.00
2023-03-10T06:01:51.004Z,0.90
2023-03-10T06:07:14.003Z,1.30
2023-03-10T06:12:37.036Z,1.13
2023-03-10T06:18:02.023Z,1.00
2023-03-10T06:23:26.213Z,1.03
2023-03-10T06:28:51.125Z,1.10
2023-03-10T06:34:16.042Z,1.10
2023-03-10T06:39:39.083Z,1.00
2023-03-10T06:45:02.053Z,1.27
2023-03-10T06:50:27.053Z,1.00
2023-03-10T06:55:50.091Z,1.00
2023-03-10T07:01:14.113Z,0.80
2023-03-10T07:06:40.112Z,0.90
2023-03-10T07:12:03.072Z,1.00
2023-03-10T07:17:26.061Z,1.10
2023-03-10T07:22:51.065Z,2.50
2023-03-10T07:28:14.088Z,1.30
2023-03-10T07:33:37.103Z,2.90
2023-03-10T07:39:02.093Z,2.00
2023-03-10T07:44:25.061Z,1.20
2023-03-10T07:49:53.315Z,1.57
2023-03-10T07:55:18.085Z,1.40
2023-03-10T08:00:41.599Z,1.40
2023-03-10T08:06:06.118Z,1.07
2023-03-10T08:11:31.079Z,1.13
2023-03-10T08:16:54.092Z,0.70
2023-03-10T08:22:17.122Z,0.70
2023-03-10T08:27:42.101Z,1.20
2023-03-10T08:33:05.247Z,0.87
2023-03-10T08:38:28.135Z,0.97
2023-03-10T08:43:53.086Z,0.80
2023-03-10T08:49:17.104Z,1.13
2023-03-10T08:54:40.122Z,0.70
2023-03-10T09:00:05.121Z,1.07
2023-03-10T09:05:28.194Z,0.80
2023-03-10T09:10:52.140Z,1.20
2023-03-10T09:16:17.153Z,1.00
2023-03-10T09:21:41.127Z,1.00
2023-03-10T09:27:04.147Z,0.80
2023-03-10T09:32:28.224Z,1.00
2023-03-10T09:37:51.212Z,1.17
2023-03-10T09:43:15.156Z,1.50
2023-03-10T09:48:51.158Z,1.30
2023-03-10T09:54:30.193Z,1.60
2023-03-10T09:59:57.171Z,2.20
2023-03-10T10:05:27.168Z,1.30
2023-03-10T10:10:52.202Z,1.40
2023-03-10T10:16:34.658Z,1.57
2023-03-10T10:22:04.188Z,1.40
2023-03-10T10:27:27.159Z,1.17
2023-03-10T10:33:10.177Z,1.20
2023-03-10T10:38:36.300Z,1.40
2023-03-10T10:44:00.211Z,1.20
2023-03-10T10:49:30.209Z,0.90
2023-03-10T10:54:58.198Z,1.13
2023-03-10T11:00:26.182Z,1.30
2023-03-10T11:05:50.185Z,1.53
2023-03-10T11:11:27.232Z,1.10
2023-03-10T11:17:00.209Z,1.20
2023-03-10T11:22:36.234Z,1.00
2023-03-10T11:28:09.255Z,0.97
2023-03-10T11:33:39.232Z,0.93
2023-03-10T11:39:05.215Z,0.83
2023-03-10T11:44:38.264Z,0.50
2023-03-10T11:50:12.224Z,0.47
2023-03-10T11:55:37.242Z,0.80
2023-03-10T12:01:03.248Z,0.50
2023-03-10T12:06:30.280Z,0.47
2023-03-10T12:11:54.282Z,0.10
2023-03-10T12:17:21.236Z,0.40
2023-03-10T12:22:53.281Z,0.53
2023-03-10T12:28:26.284Z,0.50
2023-03-10T12:33:59.272Z,0.80
2023-03-10T12:39:47.268Z,0.40
2023-03-10T12:45:23.265Z,0.50
2023-03-10T12:50:54.270Z,0.70
2023-03-10T12:56:35.267Z,0.33
2023-03-10T13:01:59.263Z,1.60
2023-03-10T13:07:30.330Z,0.70
2023-03-10T13:12:57.288Z,0.60
2023-03-10T13:18:31.348Z,0.60
2023-03-10T13:23:56.317Z,0.33
2023-03-10T13:29:29.337Z,0.20
2023-03-10T13:34:52.292Z,0.40
2023-03-10T13:40:24.288Z,0.40
2023-03-10T13:45:48.492Z,0.50
2023-03-10T13:51:31.878Z,0.40
2023-03-10T13:56:58.299Z,0.20
2023-03-10T14:02:31.300Z,0.20
2023-03-10T14:08:07.314Z,0.20
2023-03-10T14:13:58.315Z,0.30
2023-03-10T14:19:21.337Z,0.17
2023-03-10T14:24:44.349Z,0.20
2023-03-10T14:30:18.359Z,0.20
2023-03-10T14:35:43.384Z,0.20
2023-03-10T14:41:06.346Z,0.37
2023-03-10T14:46:31.522Z,0.50
2023-03-10T14:51:54.370Z,0.30
2023-03-10T14:57:18.387Z,0.23
2023-03-10T15:02:44.363Z,0.40
2023-03-10T15:08:14.362Z,0.30
2023-03-10T15:13:37.353Z,0.27
2023-03-10T15:19:02.354Z,0.50
2023-03-10T15:24:26.407Z,0.27
2023-03-10T15:29:49.354Z,0.40
2023-03-10T15:35:14.371Z,0.60
2023-03-10T15:40:40.363Z,0.37
2023-03-10T15:46:03.457Z,0.60
2023-03-10T15:51:28.433Z,0.47
2023-03-10T15:56:52.626Z,0.60
2023-03-10T16:02:15.492Z,0.47
2023-03-10T16:07:40.395Z,0.47
2023-03-10T16:13:03.393Z,0.60
2023-03-10T16:33:27.710Z,0.30
2023-03-10T16:38:50.715Z,0.47
2023-03-10T16:44:16.735Z,0.70
2023-03-10T16:49:42.676Z,0.70
2023-03-10T16:55:11.688Z,0.33
2023-03-10T17:00:35.732Z,0.60
2023-03-10T17:06:00.733Z,0.80
2023-03-10T17:11:27.714Z,0.47
2023-03-10T17:16:51.794Z,0.40
2023-03-10T17:22:16.773Z,0.40
2023-03-10T17:27:41.753Z,0.30
2023-03-10T17:33:04.733Z,0.60
2023-03-10T17:38:29.751Z,0.40
2023-03-10T17:43:52.757Z,0.57
2023-03-10T17:49:15.778Z,0.50
2023-03-10T17:54:40.751Z,0.40
2023-03-10T18:00:03.754Z,0.40
2023-03-10T18:05:28.752Z,0.40
2023-03-10T18:10:53.768Z,0.30
2023-03-10T18:16:23.750Z,0.40
2023-03-10T18:21:46.773Z,0.30
2023-03-10T18:27:11.755Z,0.50
2023-03-10T18:32:35.803Z,0.40
2023-03-10T18:37:58.767Z,0.73
2023-03-10T18:43:23.771Z,0.80
2023-03-10T18:48:46.768Z,0.70
2023-03-10T18:54:10.827Z,1.00
2023-03-10T18:59:35.766Z,1.30
2023-03-10T19:04:58.770Z,1.40
2023-03-10T19:10:24.774Z,1.27
2023-03-10T19:15:50.854Z,1.10
2023-03-10T19:21:15.781Z,1.70
2023-03-10T19:26:38.809Z,1.60
2023-03-10T19:32:03.777Z,1.77
2023-03-10T19:37:26.777Z,1.77
2023-03-10T19:42:50.793Z,2.20
2023-03-10T19:48:18.519Z,2.20
2023-03-10T19:53:42.808Z,2.33
2023-03-10T19:59:07.822Z,2.87
2023-03-10T20:04:32.829Z,2.40
2023-03-10T20:09:55.799Z,3.30
2023-03-10T20:15:18.810Z,2.57
2023-03-10T20:20:43.858Z,2.70
2023-03-10T20:26:10.858Z,3.13
2023-03-10T20:31:39.920Z,3.10
2023-03-10T20:37:04.839Z,2.30
2023-03-10T20:42:27.819Z,2.50
2023-03-10T20:47:50.826Z,2.47
2023-03-10T20:53:15.871Z,1.90
2023-03-10T20:58:38.898Z,1.77
2023-03-10T21:04:02.854Z,1.90
2023-03-10T21:09:28.044Z,1.73
2023-03-10T21:14:50.856Z,1.93
2023-03-10T21:20:16.839Z,1.93
2023-03-10T21:25:41.848Z,1.50
2023-03-10T21:31:04.927Z,2.00
2023-03-10T21:36:29.847Z,1.60
2023-03-10T21:41:54.987Z,1.40
2023-03-10T21:47:17.891Z,1.90
2023-03-10T21:52:41.915Z,1.37
2023-03-10T21:58:06.888Z,1.50
2023-03-10T22:03:29.894Z,1.50
2023-03-10T22:08:53.936Z,1.20
2023-03-10T22:14:18.870Z,1.00
2023-03-10T22:19:41.938Z,1.20
2023-03-10T22:25:04.903Z,1.00
2023-03-10T22:30:29.877Z,1.00
2023-03-10T22:35:57.914Z,1.10
2023-03-10T22:41:24.889Z,1.10
2023-03-10T22:46:52.969Z,1.13
2023-03-10T22:52:15.900Z,1.03
2023-03-10T22:57:38.907Z,0.90
2023-03-10T23:03:06.205Z,1.37
2023-03-10T23:08:34.557Z,1.13
2023-03-10T23:14:02.937Z,1.20
2023-03-10T23:19:27.965Z,1.20
2023-03-10T23:24:50.938Z,1.20
2023-03-10T23:30:16.959Z,1.50
2023-03-10T23:35:43.946Z,1.60
2023-03-10T23:41:06.954Z,1.33
2023-03-10T23:46:29.908Z,1.30
2023-03-10T23:51:55.012Z,1.20
2023-03-10T23:57:18.019Z,1.43
